sensor_id;sensor_type;location;lat;lon;timestamp;temperature;humidity
14555;DHT22;7364;50.870;4.722;2023-04-15T00:00:59;12.40;97.90
14555;DHT22;7364;50.870;4.722;2023-04-15T00:03:28;12.40;97.60
14555;DHT22;7364;50.870;4.722;2023-04-15T00:05:58;12.40;97.60
14555;DHT22;7364;50.870;4.722;2023-04-15T00:08:27;12.30;97.60
14555;DHT22;7364;50.870;4.722;2023-04-15T00:10:56;12.20;97.90
14555;DHT22;7364;50.870;4.722;2023-04-15T00:13:28;12.20;98.10
14555;DHT22;7364;50.870;4.722;2023-04-15T00:15:57;12.20;98.10
14555;DHT22;7364;50.870;4.722;2023-04-15T00:18:26;12.20;98.30
14555;DHT22;7364;50.870;4.722;2023-04-15T00:20:57;12.00;98.80
14555;DHT22;7364;50.870;4.722;2023-04-15T00:23:28;12.10;98.80
14555;DHT22;7364;50.870;4.722;2023-04-15T00:25:56;11.80;98.80
14555;DHT22;7364;50.870;4.722;2023-04-15T00:28:25;11.70;99.70
14555;DHT22;7364;50.870;4.722;2023-04-15T00:30:54;11.60;99.80
14555;DHT22;7364;50.870;4.722;2023-04-15T00:33:25;11.80;99.90
14555;DHT22;7364;50.870;4.722;2023-04-15T00:35:54;12.00;99.20
14555;DHT22;7364;50.870;4.722;2023-04-15T00:38:25;12.20;98.80
14555;DHT22;7364;50.870;4.722;2023-04-15T00:40:53;12.20;98.80
14555;DHT22;7364;50.870;4.722;2023-04-15T00:43:21;12.10;98.80
14555;DHT22;7364;50.870;4.722;2023-04-15T00:45:51;12.10;99.00
14555;DHT22;7364;50.870;4.722;2023-04-15T00:48:20;12.10;98.90
14555;DHT22;7364;50.870;4.722;2023-04-15T00:50:48;12.00;99.10
14555;DHT22;7364;50.870;4.722;2023-04-15T00:53:15;12.10;99.30
14555;DHT22;7364;50.870;4.722;2023-04-15T00:55:46;12.10;99.10
14555;DHT22;7364;50.870;4.722;2023-04-15T00:58:14;12.00;99.20
14555;DHT22;7364;50.870;4.722;2023-04-15T01:00:44;12.10;99.10
14555;DHT22;7364;50.870;4.722;2023-04-15T01:03:13;12.10;99.10
14555;DHT22;7364;50.870;4.722;2023-04-15T01:05:46;12.00;99.70
14555;DHT22;7364;50.870;4.722;2023-04-15T01:08:29;12.00;99.70
14555;DHT22;7364;50.870;4.722;2023-04-15T01:11:00;12.10;99.40
14555;DHT22;7364;50.870;4.722;2023-04-15T01:13:30;12.30;99.20
14555;DHT22;7364;50.870;4.722;2023-04-15T01:15:58;12.40;99.10
14555;DHT22;7364;50.870;4.722;2023-04-15T01:18:26;12.40;99.00
14555;DHT22;7364;50.870;4.722;2023-04-15T01:20:55;12.20;99.30
14555;DHT22;7364;50.870;4.722;2023-04-15T01:23:23;12.00;99.80
14555;DHT22;7364;50.870;4.722;2023-04-15T01:25:53;11.80;99.90
14555;DHT22;7364;50.870;4.722;2023-04-15T01:28:29;11.70;99.90
14555;DHT22;7364;50.870;4.722;2023-04-15T01:31:06;11.80;99.90
14555;DHT22;7364;50.870;4.722;2023-04-15T01:33:34;12.10;99.90
14555;DHT22;7364;50.870;4.722;2023-04-15T01:36:05;12.20;99.90
14555;DHT22;7364;50.870;4.722;2023-04-15T01:38:34;12.10;99.90
14555;DHT22;7364;50.870;4.722;2023-04-15T01:41:03;11.80;99.90
14555;DHT22;7364;50.870;4.722;2023-04-15T01:43:32;11.70;99.90
14555;DHT22;7364;50.870;4.722;2023-04-15T01:46:00;11.70;99.90
14555;DHT22;7364;50.870;4.722;2023-04-15T01:48:29;11.70;99.90
14555;DHT22;7364;50.870;4.722;2023-04-15T01:51:05;11.50;99.90
14555;DHT22;7364;50.870;4.722;2023-04-15T01:53:37;11.30;99.90
14555;DHT22;7364;50.870;4.722;2023-04-15T01:56:06;10.90;99.90
14555;DHT22;7364;50.870;4.722;2023-04-15T01:58:34;10.90;99.90
14555;DHT22;7364;50.870;4.722;2023-04-15T02:01:02;11.10;99.90
14555;DHT22;7364;50.870;4.722;2023-04-15T02:03:29;11.20;99.90
14555;DHT22;7364;50.870;4.722;2023-04-15T02:05:57;11.10;99.90
14555;DHT22;7364;50.870;4.722;2023-04-15T02:08:26;11.40;99.90
14555;DHT22;7364;50.870;4.722;2023-04-15T02:10:53;11.70;99.90
14555;DHT22;7364;50.870;4.722;2023-04-15T02:13:22;11.60;99.90
14555;DHT22;7364;50.870;4.722;2023-04-15T02:15:50;11.50;99.90
14555;DHT22;7364;50.870;4.722;2023-04-15T02:18:18;11.40;99.90
14555;DHT22;7364;50.870;4.722;2023-04-15T02:20:46;11.60;99.90
14555;DHT22;7364;50.870;4.722;2023-04-15T02:23:14;11.90;99.90
14555;DHT22;7364;50.870;4.722;2023-04-15T02:25:42;12.00;99.90
14555;DHT22;7364;50.870;4.722;2023-04-15T02:28:10;11.90;99.90
14555;DHT22;7364;50.870;4.722;2023-04-15T02:30:40;11.70;99.90
14555;DHT22;7364;50.870;4.722;2023-04-15T02:33:09;11.50;99.90
14555;DHT22;7364;50.870;4.722;2023-04-15T02:35:38;11.50;99.90
14555;DHT22;7364;50.870;4.722;2023-04-15T02:38:09;11.50;99.90
14555;DHT22;7364;50.870;4.722;2023-04-15T02:40:36;11.50;99.90
14555;DHT22;7364;50.870;4.722;2023-04-15T02:43:05;11.40;99.90
14555;DHT22;7364;50.870;4.722;2023-04-15T02:45:34;11.40;99.90
14555;DHT22;7364;50.870;4.722;2023-04-15T02:48:04;11.20;99.90
14555;DHT22;7364;50.870;4.722;2023-04-15T02:50:31;11.30;99.90
14555;DHT22;7364;50.870;4.722;2023-04-15T02:52:58;11.50;99.90
14555;DHT22;7364;50.870;4.722;2023-04-15T02:55:26;11.60;99.90
14555;DHT22;7364;50.870;4.722;2023-04-15T02:57:53;11.60;99.90
14555;DHT22;7364;50.870;4.722;2023-04-15T03:00:22;11.80;99.90
14555;DHT22;7364;50.870;4.722;2023-04-15T03:02:50;11.80;99.90
14555;DHT22;7364;50.870;4.722;2023-04-15T03:05:23;12.00;99.90
14555;DHT22;7364;50.870;4.722;2023-04-15T03:07:51;12.20;99.90
14555;DHT22;7364;50.870;4.722;2023-04-15T03:10:24;12.30;99.90
14555;DHT22;7364;50.870;4.722;2023-04-15T03:12:52;12.30;99.90
14555;DHT22;7364;50.870;4.722;2023-04-15T03:15:21;11.90;99.90
14555;DHT22;7364;50.870;4.722;2023-04-15T03:17:49;11.70;99.90
14555;DHT22;7364;50.870;4.722;2023-04-15T03:20:16;11.50;99.90
14555;DHT22;7364;50.870;4.722;2023-04-15T03:22:45;11.50;99.90
14555;DHT22;7364;50.870;4.722;2023-04-15T03:25:12;11.60;99.90
14555;DHT22;7364;50.870;4.722;2023-04-15T03:27:43;11.80;99.90
14555;DHT22;7364;50.870;4.722;2023-04-15T03:30:12;12.00;99.90
14555;DHT22;7364;50.870;4.722;2023-04-15T03:32:40;11.90;99.90
14555;DHT22;7364;50.870;4.722;2023-04-15T03:35:08;12.10;99.90
14555;DHT22;7364;50.870;4.722;2023-04-15T03:37:35;12.10;99.90
14555;DHT22;7364;50.870;4.722;2023-04-15T03:40:06;12.00;99.90
14555;DHT22;7364;50.870;4.722;2023-04-15T03:42:33;11.70;99.90
14555;DHT22;7364;50.870;4.722;2023-04-15T03:45:00;11.60;99.90
14555;DHT22;7364;50.870;4.722;2023-04-15T03:47:28;11.50;99.90
14555;DHT22;7364;50.870;4.722;2023-04-15T03:49:55;11.30;99.90
14555;DHT22;7364;50.870;4.722;2023-04-15T03:52:22;11.20;99.90
14555;DHT22;7364;50.870;4.722;2023-04-15T03:54:50;11.20;99.90
14555;DHT22;7364;50.870;4.722;2023-04-15T03:57:19;11.30;99.90
14555;DHT22;7364;50.870;4.722;2023-04-15T03:59:47;11.60;99.90
14555;DHT22;7364;50.870;4.722;2023-04-15T04:02:14;11.70;99.90
14555;DHT22;7364;50.870;4.722;2023-04-15T04:04:42;11.50;99.90
14555;DHT22;7364;50.870;4.722;2023-04-15T04:07:14;11.20;99.90
14555;DHT22;7364;50.870;4.722;2023-04-15T04:09:42;11.20;99.90
14555;DHT22;7364;50.870;4.722;2023-04-15T04:12:09;11.30;99.90
14555;DHT22;7364;50.870;4.722;2023-04-15T04:14:38;11.30;99.90
14555;DHT22;7364;50.870;4.722;2023-04-15T04:17:05;11.20;99.90
14555;DHT22;7364;50.870;4.722;2023-04-15T04:19:32;11.10;99.90
14555;DHT22;7364;50.870;4.722;2023-04-15T04:22:00;11.20;99.90
14555;DHT22;7364;50.870;4.722;2023-04-15T04:24:27;11.30;99.90
14555;DHT22;7364;50.870;4.722;2023-04-15T04:26:54;11.40;99.90
14555;DHT22;7364;50.870;4.722;2023-04-15T04:29:25;11.50;99.90
14555;DHT22;7364;50.870;4.722;2023-04-15T04:31:54;11.80;99.90
14555;DHT22;7364;50.870;4.722;2023-04-15T04:34:21;11.90;99.90
14555;DHT22;7364;50.870;4.722;2023-04-15T04:36:48;11.90;99.90
14555;DHT22;7364;50.870;4.722;2023-04-15T04:39:16;11.60;99.90
14555;DHT22;7364;50.870;4.722;2023-04-15T04:41:44;11.30;99.90
14555;DHT22;7364;50.870;4.722;2023-04-15T04:44:11;11.30;99.90
14555;DHT22;7364;50.870;4.722;2023-04-15T04:46:39;11.30;99.90
14555;DHT22;7364;50.870;4.722;2023-04-15T04:49:11;11.40;99.90
14555;DHT22;7364;50.870;4.722;2023-04-15T04:51:38;11.30;99.90
14555;DHT22;7364;50.870;4.722;2023-04-15T04:54:07;11.20;99.90
14555;DHT22;7364;50.870;4.722;2023-04-15T04:56:35;11.10;99.90
14555;DHT22;7364;50.870;4.722;2023-04-15T04:59:04;11.10;99.90
14555;DHT22;7364;50.870;4.722;2023-04-15T05:01:32;11.00;99.90
14555;DHT22;7364;50.870;4.722;2023-04-15T05:03:59;10.80;99.90
14555;DHT22;7364;50.870;4.722;2023-04-15T05:06:28;10.80;99.90
14555;DHT22;7364;50.870;4.722;2023-04-15T05:08:56;10.70;99.90
14555;DHT22;7364;50.870;4.722;2023-04-15T05:11:24;10.60;99.90
14555;DHT22;7364;50.870;4.722;2023-04-15T05:13:51;10.60;99.90
14555;DHT22;7364;50.870;4.722;2023-04-15T05:16:18;10.70;99.90
14555;DHT22;7364;50.870;4.722;2023-04-15T05:18:46;10.70;99.90
14555;DHT22;7364;50.870;4.722;2023-04-15T05:21:14;10.70;99.90
14555;DHT22;7364;50.870;4.722;2023-04-15T05:23:43;10.70;99.90
14555;DHT22;7364;50.870;4.722;2023-04-15T05:26:11;10.80;99.90
14555;DHT22;7364;50.870;4.722;2023-04-15T05:28:38;10.90;99.90
14555;DHT22;7364;50.870;4.722;2023-04-15T05:31:06;10.90;99.90
14555;DHT22;7364;50.870;4.722;2023-04-15T05:33:33;10.80;99.90
14555;DHT22;7364;50.870;4.722;2023-04-15T05:36:01;10.70;99.90
14555;DHT22;7364;50.870;4.722;2023-04-15T05:38:28;10.70;99.90
14555;DHT22;7364;50.870;4.722;2023-04-15T05:40:57;10.60;99.90
14555;DHT22;7364;50.870;4.722;2023-04-15T05:43:24;10.40;99.90
14555;DHT22;7364;50.870;4.722;2023-04-15T05:45:51;10.80;99.90
14555;DHT22;7364;50.870;4.722;2023-04-15T05:48:19;11.30;99.90
14555;DHT22;7364;50.870;4.722;2023-04-15T05:50:46;11.10;99.90
14555;DHT22;7364;50.870;4.722;2023-04-15T05:53:13;10.70;99.90
14555;DHT22;7364;50.870;4.722;2023-04-15T05:55:41;10.90;99.90
14555;DHT22;7364;50.870;4.722;2023-04-15T05:58:10;11.00;99.90
14555;DHT22;7364;50.870;4.722;2023-04-15T06:00:37;11.30;99.90
14555;DHT22;7364;50.870;4.722;2023-04-15T06:03:04;11.20;99.90
14555;DHT22;7364;50.870;4.722;2023-04-15T06:05:32;10.80;99.90
14555;DHT22;7364;50.870;4.722;2023-04-15T06:07:59;11.00;99.90
14555;DHT22;7364;50.870;4.722;2023-04-15T06:10:27;11.10;99.90
14555;DHT22;7364;50.870;4.722;2023-04-15T06:12:54;10.90;99.90
14555;DHT22;7364;50.870;4.722;2023-04-15T06:15:23;10.70;99.90
14555;DHT22;7364;50.870;4.722;2023-04-15T06:17:50;10.70;99.90
14555;DHT22;7364;50.870;4.722;2023-04-15T06:20:17;10.80;99.90
14555;DHT22;7364;50.870;4.722;2023-04-15T06:22:45;11.10;99.90
14555;DHT22;7364;50.870;4.722;2023-04-15T06:25:15;11.40;99.90
14555;DHT22;7364;50.870;4.722;2023-04-15T06:27:42;11.60;99.90
14555;DHT22;7364;50.870;4.722;2023-04-15T06:30:10;11.60;99.90
14555;DHT22;7364;50.870;4.722;2023-04-15T06:32:39;11.50;99.90
14555;DHT22;7364;50.870;4.722;2023-04-15T06:35:07;11.40;99.90
14555;DHT22;7364;50.870;4.722;2023-04-15T06:37:34;11.30;99.90
14555;DHT22;7364;50.870;4.722;2023-04-15T06:40:02;11.20;99.90
14555;DHT22;7364;50.870;4.722;2023-04-15T06:42:30;11.10;99.90
14555;DHT22;7364;50.870;4.722;2023-04-15T06:44:57;11.30;99.90
14555;DHT22;7364;50.870;4.722;2023-04-15T06:47:24;11.50;99.90
14555;DHT22;7364;50.870;4.722;2023-04-15T06:49:53;11.70;99.90
14555;DHT22;7364;50.870;4.722;2023-04-15T06:52:20;11.70;99.90
14555;DHT22;7364;50.870;4.722;2023-04-15T06:54:48;11.90;99.90
14555;DHT22;7364;50.870;4.722;2023-04-15T06:57:15;11.60;99.90
14555;DHT22;7364;50.870;4.722;2023-04-15T06:59:42;11.30;99.90
14555;DHT22;7364;50.870;4.722;2023-04-15T07:02:11;11.20;99.90
14555;DHT22;7364;50.870;4.722;2023-04-15T07:04:39;11.00;99.90
14555;DHT22;7364;50.870;4.722;2023-04-15T07:07:08;11.00;99.90
14555;DHT22;7364;50.870;4.722;2023-04-15T07:09:35;11.10;99.90
14555;DHT22;7364;50.870;4.722;2023-04-15T07:12:03;11.20;99.90
14555;DHT22;7364;50.870;4.722;2023-04-15T07:14:30;11.30;99.90
14555;DHT22;7364;50.870;4.722;2023-04-15T07:16:58;11.50;99.90
14555;DHT22;7364;50.870;4.722;2023-04-15T07:19:25;11.70;99.90
14555;DHT22;7364;50.870;4.722;2023-04-15T07:21:53;11.60;99.90
14555;DHT22;7364;50.870;4.722;2023-04-15T07:24:22;11.60;99.90
14555;DHT22;7364;50.870;4.722;2023-04-15T07:26:52;11.50;99.90
14555;DHT22;7364;50.870;4.722;2023-04-15T07:29:19;11.50;99.90
14555;DHT22;7364;50.870;4.722;2023-04-15T07:31:47;11.70;99.90
14555;DHT22;7364;50.870;4.722;2023-04-15T07:34:14;11.90;99.90
14555;DHT22;7364;50.870;4.722;2023-04-15T07:36:42;12.00;99.90
14555;DHT22;7364;50.870;4.722;2023-04-15T07:39:09;12.00;99.90
14555;DHT22;7364;50.870;4.722;2023-04-15T07:41:38;11.90;99.90
14555;DHT22;7364;50.870;4.722;2023-04-15T07:44:05;12.10;99.90
14555;DHT22;7364;50.870;4.722;2023-04-15T07:46:32;12.40;99.90
14555;DHT22;7364;50.870;4.722;2023-04-15T07:49:00;12.60;99.90
14555;DHT22;7364;50.870;4.722;2023-04-15T07:51:27;12.80;99.90
14555;DHT22;7364;50.870;4.722;2023-04-15T07:53:55;12.90;99.90
14555;DHT22;7364;50.870;4.722;2023-04-15T07:56:22;13.10;99.90
14555;DHT22;7364;50.870;4.722;2023-04-15T07:58:51;13.40;99.90
14555;DHT22;7364;50.870;4.722;2023-04-15T08:01:18;13.60;99.90
14555;DHT22;7364;50.870;4.722;2023-04-15T08:03:45;13.90;99.90
14555;DHT22;7364;50.870;4.722;2023-04-15T08:06:13;14.10;99.90
14555;DHT22;7364;50.870;4.722;2023-04-15T08:08:40;14.00;99.10
14555;DHT22;7364;50.870;4.722;2023-04-15T08:11:08;13.90;99.10
14555;DHT22;7364;50.870;4.722;2023-04-15T08:13:35;14.40;99.50
14555;DHT22;7364;50.870;4.722;2023-04-15T08:16:28;14.10;98.70
14555;DHT22;7364;50.870;4.722;2023-04-15T08:18:56;14.10;98.10
14555;DHT22;7364;50.870;4.722;2023-04-15T08:21:23;14.00;98.50
14555;DHT22;7364;50.870;4.722;2023-04-15T08:23:51;14.20;98.90
14555;DHT22;7364;50.870;4.722;2023-04-15T08:26:20;14.40;98.90
14555;DHT22;7364;50.870;4.722;2023-04-15T08:28:48;14.40;97.70
14555;DHT22;7364;50.870;4.722;2023-04-15T08:31:16;14.40;97.80
14555;DHT22;7364;50.870;4.722;2023-04-15T08:33:45;14.30;98.10
14555;DHT22;7364;50.870;4.722;2023-04-15T08:36:13;14.30;98.30
14555;DHT22;7364;50.870;4.722;2023-04-15T08:38:40;14.40;97.90
14555;DHT22;7364;50.870;4.722;2023-04-15T08:41:14;14.40;97.90
14555;DHT22;7364;50.870;4.722;2023-04-15T08:43:51;14.60;98.10
14555;DHT22;7364;50.870;4.722;2023-04-15T08:46:20;14.70;97.40
14555;DHT22;7364;50.870;4.722;2023-04-15T08:48:50;14.80;97.40
14555;DHT22;7364;50.870;4.722;2023-04-15T08:51:18;14.70;97.30
14555;DHT22;7364;50.870;4.722;2023-04-15T08:53:46;14.50;97.80
14555;DHT22;7364;50.870;4.722;2023-04-15T08:56:14;14.50;97.50
14555;DHT22;7364;50.870;4.722;2023-04-15T08:58:43;14.80;97.20
14555;DHT22;7364;50.870;4.722;2023-04-15T09:01:13;15.00;97.50
14555;DHT22;7364;50.870;4.722;2023-04-15T09:03:41;15.10;97.30
14555;DHT22;7364;50.870;4.722;2023-04-15T09:06:10;14.80;97.40
14555;DHT22;7364;50.870;4.722;2023-04-15T09:08:38;15.10;97.40
14555;DHT22;7364;50.870;4.722;2023-04-15T09:11:05;15.00;97.50
14555;DHT22;7364;50.870;4.722;2023-04-15T09:13:33;15.00;97.50
14555;DHT22;7364;50.870;4.722;2023-04-15T09:16:01;14.90;97.40
14555;DHT22;7364;50.870;4.722;2023-04-15T09:18:30;14.80;98.30
14555;DHT22;7364;50.870;4.722;2023-04-15T09:21:04;15.10;97.80
14555;DHT22;7364;50.870;4.722;2023-04-15T09:23:35;15.30;97.60
14555;DHT22;7364;50.870;4.722;2023-04-15T09:26:03;15.50;97.80
14555;DHT22;7364;50.870;4.722;2023-04-15T09:28:31;15.10;97.30
14555;DHT22;7364;50.870;4.722;2023-04-15T09:31:01;15.30;97.30
14555;DHT22;7364;50.870;4.722;2023-04-15T09:33:29;15.20;98.00
14555;DHT22;7364;50.870;4.722;2023-04-15T09:35:58;15.10;98.00
14555;DHT22;7364;50.870;4.722;2023-04-15T09:38:26;15.10;97.50
14555;DHT22;7364;50.870;4.722;2023-04-15T09:40:55;15.00;99.00
14555;DHT22;7364;50.870;4.722;2023-04-15T09:43:36;15.30;98.00
14555;DHT22;7364;50.870;4.722;2023-04-15T09:46:03;15.40;97.60
14555;DHT22;7364;50.870;4.722;2023-04-15T09:48:31;15.60;97.10
14555;DHT22;7364;50.870;4.722;2023-04-15T09:50:59;15.80;97.90
14555;DHT22;7364;50.870;4.722;2023-04-15T09:53:26;15.70;97.40
14555;DHT22;7364;50.870;4.722;2023-04-15T09:55:56;16.00;96.80
14555;DHT22;7364;50.870;4.722;2023-04-15T09:58:27;16.10;97.10
14555;DHT22;7364;50.870;4.722;2023-04-15T10:00:56;16.10;96.20
14555;DHT22;7364;50.870;4.722;2023-04-15T10:03:26;16.20;96.20
14555;DHT22;7364;50.870;4.722;2023-04-15T10:05:55;16.50;95.60
14555;DHT22;7364;50.870;4.722;2023-04-15T10:08:23;16.20;95.00
14555;DHT22;7364;50.870;4.722;2023-04-15T10:10:51;16.00;95.20
14555;DHT22;7364;50.870;4.722;2023-04-15T10:13:22;16.00;94.70
14555;DHT22;7364;50.870;4.722;2023-04-15T10:15:59;16.10;95.00
14555;DHT22;7364;50.870;4.722;2023-04-15T10:18:28;15.90;94.70
14555;DHT22;7364;50.870;4.722;2023-04-15T10:20:59;15.80;94.80
14555;DHT22;7364;50.870;4.722;2023-04-15T10:23:27;16.00;94.60
14555;DHT22;7364;50.870;4.722;2023-04-15T10:25:55;16.50;93.50
14555;DHT22;7364;50.870;4.722;2023-04-15T10:28:25;17.10;93.40
14555;DHT22;7364;50.870;4.722;2023-04-15T10:30:52;18.00;92.20
14555;DHT22;7364;50.870;4.722;2023-04-15T10:33:21;17.70;90.70
14555;DHT22;7364;50.870;4.722;2023-04-15T10:35:50;17.90;83.80
14555;DHT22;7364;50.870;4.722;2023-04-15T10:38:31;18.70;83.80
14555;DHT22;7364;50.870;4.722;2023-04-15T10:41:16;19.80;80.30
14555;DHT22;7364;50.870;4.722;2023-04-15T10:43:51;20.70;79.00
14555;DHT22;7364;50.870;4.722;2023-04-15T10:46:22;21.00;79.10
14555;DHT22;7364;50.870;4.722;2023-04-15T10:48:51;21.10;77.50
14555;DHT22;7364;50.870;4.722;2023-04-15T10:51:30;21.40;75.90
14555;DHT22;7364;50.870;4.722;2023-04-15T10:53:58;20.10;74.30
14555;DHT22;7364;50.870;4.722;2023-04-15T10:56:28;20.20;76.00
14555;DHT22;7364;50.870;4.722;2023-04-15T10:58:59;19.40;72.20
14555;DHT22;7364;50.870;4.722;2023-04-15T11:01:49;18.90;75.10
14555;DHT22;7364;50.870;4.722;2023-04-15T11:04:50;19.40;75.70
14555;DHT22;7364;50.870;4.722;2023-04-15T11:07:34;18.80;74.90
14555;DHT22;7364;50.870;4.722;2023-04-15T11:10:01;18.70;76.70
14555;DHT22;7364;50.870;4.722;2023-04-15T11:12:36;18.70;77.80
14555;DHT22;7364;50.870;4.722;2023-04-15T11:15:28;18.90;77.00
14555;DHT22;7364;50.870;4.722;2023-04-15T11:18:09;19.10;76.60
14555;DHT22;7364;50.870;4.722;2023-04-15T11:20:39;19.40;71.30
14555;DHT22;7364;50.870;4.722;2023-04-15T11:23:09;19.50;72.70
14555;DHT22;7364;50.870;4.722;2023-04-15T11:25:38;19.50;66.20
14555;DHT22;7364;50.870;4.722;2023-04-15T11:28:06;19.20;65.70
14555;DHT22;7364;50.870;4.722;2023-04-15T11:30:36;19.20;64.70
14555;DHT22;7364;50.870;4.722;2023-04-15T11:33:06;19.30;66.00
14555;DHT22;7364;50.870;4.722;2023-04-15T11:35:35;19.80;66.60
14555;DHT22;7364;50.870;4.722;2023-04-15T11:38:09;20.20;65.60
14555;DHT22;7364;50.870;4.722;2023-04-15T11:40:44;21.20;65.40
14555;DHT22;7364;50.870;4.722;2023-04-15T11:43:14;21.30;65.40
14555;DHT22;7364;50.870;4.722;2023-04-15T11:45:54;21.60;58.70
14555;DHT22;7364;50.870;4.722;2023-04-15T11:48:24;20.80;59.20
14555;DHT22;7364;50.870;4.722;2023-04-15T11:50:55;20.80;61.60
14555;DHT22;7364;50.870;4.722;2023-04-15T11:53:23;20.40;58.80
14555;DHT22;7364;50.870;4.722;2023-04-15T11:55:52;20.70;58.30
14555;DHT22;7364;50.870;4.722;2023-04-15T11:58:21;21.90;57.30
14555;DHT22;7364;50.870;4.722;2023-04-15T12:00:50;23.50;56.10
14555;DHT22;7364;50.870;4.722;2023-04-15T12:03:23;23.50;56.00
14555;DHT22;7364;50.870;4.722;2023-04-15T12:06:04;24.50;55.80
14555;DHT22;7364;50.870;4.722;2023-04-15T12:08:51;24.70;55.40
14555;DHT22;7364;50.870;4.722;2023-04-15T12:11:19;25.30;53.50
14555;DHT22;7364;50.870;4.722;2023-04-15T12:13:47;24.20;52.70
14555;DHT22;7364;50.870;4.722;2023-04-15T12:16:17;24.00;53.90
14555;DHT22;7364;50.870;4.722;2023-04-15T12:18:50;24.40;53.60
14555;DHT22;7364;50.870;4.722;2023-04-15T12:21:21;24.00;51.30
14555;DHT22;7364;50.870;4.722;2023-04-15T12:23:49;24.60;49.60
14555;DHT22;7364;50.870;4.722;2023-04-15T12:26:17;25.00;50.10
14555;DHT22;7364;50.870;4.722;2023-04-15T12:28:44;24.20;51.30
14555;DHT22;7364;50.870;4.722;2023-04-15T12:31:13;23.60;50.20
14555;DHT22;7364;50.870;4.722;2023-04-15T12:33:41;24.90;53.00
14555;DHT22;7364;50.870;4.722;2023-04-15T12:36:09;25.70;50.20
14555;DHT22;7364;50.870;4.722;2023-04-15T12:38:37;25.10;51.70
14555;DHT22;7364;50.870;4.722;2023-04-15T12:41:04;25.60;51.20
14555;DHT22;7364;50.870;4.722;2023-04-15T12:43:32;25.50;49.30
14555;DHT22;7364;50.870;4.722;2023-04-15T12:45:59;25.00;46.10
14555;DHT22;7364;50.870;4.722;2023-04-15T12:48:26;23.60;48.20
14555;DHT22;7364;50.870;4.722;2023-04-15T12:50:54;23.40;48.80
14555;DHT22;7364;50.870;4.722;2023-04-15T12:53:23;24.30;48.50
14555;DHT22;7364;50.870;4.722;2023-04-15T12:55:51;24.60;48.20
14555;DHT22;7364;50.870;4.722;2023-04-15T12:58:18;24.70;48.50
14555;DHT22;7364;50.870;4.722;2023-04-15T13:00:46;24.10;48.30
14555;DHT22;7364;50.870;4.722;2023-04-15T13:03:14;24.90;47.10
14555;DHT22;7364;50.870;4.722;2023-04-15T13:05:42;25.40;47.80
14555;DHT22;7364;50.870;4.722;2023-04-15T13:08:09;25.30;49.30
14555;DHT22;7364;50.870;4.722;2023-04-15T13:10:38;26.30;46.70
14555;DHT22;7364;50.870;4.722;2023-04-15T13:13:07;26.20;46.80
14555;DHT22;7364;50.870;4.722;2023-04-15T13:15:36;26.70;46.20
14555;DHT22;7364;50.870;4.722;2023-04-15T13:18:05;27.60;45.20
14555;DHT22;7364;50.870;4.722;2023-04-15T13:20:33;27.60;43.70
14555;DHT22;7364;50.870;4.722;2023-04-15T13:23:14;27.20;44.60
14555;DHT22;7364;50.870;4.722;2023-04-15T13:25:57;26.60;46.20
14555;DHT22;7364;50.870;4.722;2023-04-15T13:28:24;26.60;45.90
14555;DHT22;7364;50.870;4.722;2023-04-15T13:31:00;26.20;43.40
14555;DHT22;7364;50.870;4.722;2023-04-15T13:33:27;25.30;44.90
14555;DHT22;7364;50.870;4.722;2023-04-15T13:35:55;25.10;46.10
14555;DHT22;7364;50.870;4.722;2023-04-15T13:38:31;25.10;43.10
14555;DHT22;7364;50.870;4.722;2023-04-15T13:41:09;24.90;44.10
14555;DHT22;7364;50.870;4.722;2023-04-15T13:43:50;25.20;43.20
14555;DHT22;7364;50.870;4.722;2023-04-15T13:46:23;26.20;43.90
14555;DHT22;7364;50.870;4.722;2023-04-15T13:48:51;25.90;44.90
14555;DHT22;7364;50.870;4.722;2023-04-15T13:51:19;26.40;45.60
14555;DHT22;7364;50.870;4.722;2023-04-15T13:53:48;26.60;46.00
14555;DHT22;7364;50.870;4.722;2023-04-15T13:56:31;26.60;45.10
14555;DHT22;7364;50.870;4.722;2023-04-15T13:59:00;26.40;45.50
14555;DHT22;7364;50.870;4.722;2023-04-15T14:01:27;27.00;45.20
14555;DHT22;7364;50.870;4.722;2023-04-15T14:03:57;27.10;45.80
14555;DHT22;7364;50.870;4.722;2023-04-15T14:06:24;27.30;46.20
14555;DHT22;7364;50.870;4.722;2023-04-15T14:09:05;27.00;47.30
14555;DHT22;7364;50.870;4.722;2023-04-15T14:11:37;26.20;47.90
14555;DHT22;7364;50.870;4.722;2023-04-15T14:14:05;25.90;48.70
14555;DHT22;7364;50.870;4.722;2023-04-15T14:16:33;25.20;48.90
14555;DHT22;7364;50.870;4.722;2023-04-15T14:19:15;24.40;49.50
14555;DHT22;7364;50.870;4.722;2023-04-15T14:21:56;24.90;47.30
14555;DHT22;7364;50.870;4.722;2023-04-15T14:24:25;25.20;48.10
14555;DHT22;7364;50.870;4.722;2023-04-15T14:27:03;25.50;48.40
14555;DHT22;7364;50.870;4.722;2023-04-15T14:29:33;25.50;48.40
14555;DHT22;7364;50.870;4.722;2023-04-15T14:32:01;25.50;48.60
14555;DHT22;7364;50.870;4.722;2023-04-15T14:34:32;25.70;49.30
14555;DHT22;7364;50.870;4.722;2023-04-15T14:37:13;26.10;47.40
14555;DHT22;7364;50.870;4.722;2023-04-15T14:39:41;25.30;47.90
14555;DHT22;7364;50.870;4.722;2023-04-15T14:42:10;25.50;50.10
14555;DHT22;7364;50.870;4.722;2023-04-15T14:44:38;26.00;49.20
14555;DHT22;7364;50.870;4.722;2023-04-15T14:47:06;25.70;47.90
14555;DHT22;7364;50.870;4.722;2023-04-15T14:49:33;25.30;49.20
14555;DHT22;7364;50.870;4.722;2023-04-15T14:52:00;25.60;50.50
14555;DHT22;7364;50.870;4.722;2023-04-15T14:54:27;26.10;49.80
14555;DHT22;7364;50.870;4.722;2023-04-15T14:56:55;26.30;49.80
14555;DHT22;7364;50.870;4.722;2023-04-15T14:59:24;26.30;48.30
14555;DHT22;7364;50.870;4.722;2023-04-15T15:01:52;25.90;47.70
14555;DHT22;7364;50.870;4.722;2023-04-15T15:04:19;25.90;48.40
14555;DHT22;7364;50.870;4.722;2023-04-15T15:06:46;26.20;46.80
14555;DHT22;7364;50.870;4.722;2023-04-15T15:09:15;26.20;46.00
14555;DHT22;7364;50.870;4.722;2023-04-15T15:11:44;26.40;44.60
14555;DHT22;7364;50.870;4.722;2023-04-15T15:14:11;26.80;46.00
14555;DHT22;7364;50.870;4.722;2023-04-15T15:16:40;27.20;46.30
14555;DHT22;7364;50.870;4.722;2023-04-15T15:19:08;27.10;44.80
14555;DHT22;7364;50.870;4.722;2023-04-15T15:21:36;27.20;43.00
14555;DHT22;7364;50.870;4.722;2023-04-15T15:24:04;27.10;43.40
14555;DHT22;7364;50.870;4.722;2023-04-15T15:26:31;27.50;44.90
14555;DHT22;7364;50.870;4.722;2023-04-15T15:28:59;28.50;45.50
14555;DHT22;7364;50.870;4.722;2023-04-15T15:31:27;29.00;43.90
14555;DHT22;7364;50.870;4.722;2023-04-15T15:33:55;28.70;45.00
14555;DHT22;7364;50.870;4.722;2023-04-15T15:36:23;29.40;45.40
14555;DHT22;7364;50.870;4.722;2023-04-15T15:38:52;29.50;45.50
14555;DHT22;7364;50.870;4.722;2023-04-15T15:41:19;29.50;43.90
14555;DHT22;7364;50.870;4.722;2023-04-15T15:43:46;28.50;42.90
14555;DHT22;7364;50.870;4.722;2023-04-15T15:46:14;27.90;44.90
14555;DHT22;7364;50.870;4.722;2023-04-15T15:48:41;28.60;46.00
14555;DHT22;7364;50.870;4.722;2023-04-15T15:51:09;29.50;44.40
14555;DHT22;7364;50.870;4.722;2023-04-15T15:53:37;29.10;44.50
14555;DHT22;7364;50.870;4.722;2023-04-15T15:56:05;28.40;45.00
14555;DHT22;7364;50.870;4.722;2023-04-15T15:58:32;27.60;44.30